createdAt,value
2023-04-25T00:00:28.206Z,99581.94
2023-04-25T00:03:20.922Z,99584.50
2023-04-25T00:05:53.794Z,99566.66
2023-04-25T00:08:27.037Z,99587.21
2023-04-25T00:10:59.357Z,99582.26
2023-04-25T00:13:31.798Z,99583.79
2023-04-25T00:16:05.380Z,99584.59
2023-04-25T00:18:37.582Z,99585.35
2023-04-25T00:21:09.959Z,99585.77
2023-04-25T00:23:42.007Z,99587.52
2023-04-25T00:26:14.364Z,99585.48
2023-04-25T00:28:46.550Z,99592.51
2023-04-25T00:31:18.875Z,99593.70
2023-04-25T00:33:51.955Z,99597.52
2023-04-25T00:36:24.569Z,99597.67
2023-04-25T00:38:58.057Z,99601.73
2023-04-25T00:41:31.303Z,99602.30
2023-04-25T00:44:05.344Z,99598.48
2023-04-25T00:46:38.717Z,99605.41
2023-04-25T00:49:16.509Z,99592.66
2023-04-25T00:51:48.874Z,99602.23
2023-04-25T00:54:21.289Z,99600.16
2023-04-25T00:56:53.645Z,99599.36
2023-04-25T00:59:26.308Z,99587.41
2023-04-25T01:01:59.133Z,99598.64
2023-04-25T01:04:32.600Z,99598.16
2023-04-25T01:07:04.851Z,99599.10
2023-04-25T01:09:37.359Z,99600.77
2023-04-25T01:12:10.184Z,99600.55
2023-04-25T01:14:42.452Z,99598.96
2023-04-25T01:17:15.982Z,99600.48
2023-04-25T01:19:49.971Z,99602.70
2023-04-25T01:22:22.954Z,99606.16
2023-04-25T01:24:57.668Z,99602.02
2023-04-25T01:27:30.836Z,99603.58
2023-04-25T01:30:03.497Z,99603.61
2023-04-25T01:32:40.238Z,99606.20
2023-04-25T01:35:14.391Z,99605.53
2023-04-25T01:37:46.829Z,99607.73
2023-04-25T01:40:19.898Z,99608.01
2023-04-25T01:42:52.761Z,99612.31
2023-04-25T01:45:26.244Z,99610.88
2023-04-25T01:48:00.625Z,99612.67
2023-04-25T01:50:33.249Z,99612.77
2023-04-25T01:53:06.227Z,99610.08
2023-04-25T01:55:38.428Z,99594.34
2023-04-25T01:58:14.072Z,99602.86
2023-04-25T02:01:09.183Z,99606.38
2023-04-25T02:03:47.154Z,99608.77
2023-04-25T02:06:37.802Z,99611.64
2023-04-25T02:09:10.149Z,99612.05
2023-04-25T02:11:47.719Z,99608.80
2023-04-25T02:14:41.283Z,99613.67
2023-04-25T02:17:32.851Z,99615.33
2023-04-25T02:20:06.135Z,99582.14
2023-04-25T02:22:38.689Z,99616.80
2023-04-25T02:25:13.915Z,99619.05
2023-04-25T02:27:46.765Z,99617.27
2023-04-25T02:30:19.400Z,99616.04
2023-04-25T02:32:51.810Z,99608.03
2023-04-25T02:35:24.718Z,99614.42
2023-04-25T02:37:59.969Z,99615.98
2023-04-25T02:40:32.392Z,99619.58
2023-04-25T02:43:05.021Z,99615.20
2023-04-25T02:45:37.360Z,99620.38
2023-04-25T02:48:10.002Z,99616.05
2023-04-25T02:50:42.255Z,99615.83
2023-04-25T02:53:14.619Z,99598.80
2023-04-25T02:55:51.161Z,99597.04
2023-04-25T02:58:23.706Z,99598.45
2023-04-25T03:00:57.714Z,99606.96
2023-04-25T03:03:30.157Z,99608.41
2023-04-25T03:06:02.772Z,99606.41
2023-04-25T03:08:37.819Z,99603.23
2023-04-25T03:11:10.075Z,99602.70
2023-04-25T03:13:42.471Z,99601.23
2023-04-25T03:16:15.403Z,99597.85
2023-04-25T03:18:47.837Z,99595.27
2023-04-25T03:21:20.448Z,99597.73
2023-04-25T03:23:52.926Z,99594.31
2023-04-25T03:26:25.506Z,99588.11
2023-04-25T03:28:57.752Z,99586.23
2023-04-25T03:31:30.673Z,99590.01
2023-04-25T03:34:03.083Z,99590.33
2023-04-25T03:36:35.385Z,99594.36
2023-04-25T03:39:08.737Z,99595.30
2023-04-25T03:41:42.477Z,99593.45
2023-04-25T03:44:18.626Z,99595.86
2023-04-25T03:46:51.347Z,99599.05
2023-04-25T03:49:23.956Z,99606.87
2023-04-25T03:52:09.187Z,99606.85
2023-04-25T03:54:44.464Z,99608.02
2023-04-25T03:57:20.035Z,99610.95
2023-04-25T03:59:52.446Z,99606.01
2023-04-25T04:02:24.920Z,99597.82
2023-04-25T04:04:59.389Z,99610.98
2023-04-25T04:07:34.043Z,99606.89
2023-04-25T04:10:09.304Z,99613.02
2023-04-25T04:12:43.292Z,99591.77
2023-04-25T04:15:16.031Z,99616.84
2023-04-25T04:17:50.273Z,99617.84
2023-04-25T04:20:24.232Z,99618.66
2023-04-25T04:22:56.615Z,99623.77
2023-04-25T04:25:29.814Z,99627.69
2023-04-25T04:28:08.253Z,99629.89
2023-04-25T04:30:48.114Z,99631.48
2023-04-25T04:33:21.143Z,99634.53
2023-04-25T04:35:58.647Z,99631.48
2023-04-25T04:38:31.573Z,99630.17
2023-04-25T04:41:07.631Z,99635.45
2023-04-25T04:43:57.030Z,99638.68
2023-04-25T04:46:55.587Z,99635.57
2023-04-25T04:49:38.816Z,99634.33
2023-04-25T04:52:31.466Z,99639.02
2023-04-25T04:55:29.466Z,99639.71
2023-04-25T04:58:18.713Z,99642.17
2023-04-25T05:01:01.306Z,99633.05
2023-04-25T05:04:02.154Z,99645.22
2023-04-25T05:07:07.048Z,99640.04
2023-04-25T05:09:54.225Z,99643.36
2023-04-25T05:12:59.162Z,99644.91
2023-04-25T05:15:47.993Z,99620.59
2023-04-25T05:18:38.642Z,99616.27
2023-04-25T05:21:17.474Z,99641.64
2023-04-25T05:24:08.867Z,99643.06
2023-04-25T05:26:59.605Z,99645.39
2023-04-25T05:29:34.652Z,99646.05
2023-04-25T05:32:39.162Z,99648.95
2023-04-25T05:35:12.654Z,99647.71
2023-04-25T05:37:49.919Z,99650.35
2023-04-25T05:40:23.066Z,99642.30
2023-04-25T05:43:14.921Z,99639.05
2023-04-25T05:45:56.891Z,99647.52
2023-04-25T05:48:36.633Z,99649.20
2023-04-25T05:51:20.664Z,99654.52
2023-04-25T05:54:07.273Z,99651.85
2023-04-25T05:56:40.863Z,99654.77
2023-04-25T05:59:13.361Z,99660.30
2023-04-25T06:01:45.742Z,99661.73
2023-04-25T06:04:18.589Z,99665.20
2023-04-25T06:06:51.186Z,99660.69
2023-04-25T06:09:23.499Z,99666.15
2023-04-25T06:11:56.287Z,99661.56
2023-04-25T06:14:29.777Z,99644.75
2023-04-25T06:17:07.298Z,99666.24
2023-04-25T06:19:39.690Z,99659.67
2023-04-25T06:22:12.151Z,99665.16
2023-04-25T06:24:46.965Z,99657.17
2023-04-25T06:27:19.176Z,99662.54
2023-04-25T06:29:52.247Z,99668.55
2023-04-25T06:32:24.475Z,99666.98
2023-04-25T06:34:56.783Z,99665.35
2023-04-25T06:37:28.937Z,99664.40
2023-04-25T06:40:01.750Z,99656.21
2023-04-25T06:42:35.744Z,99658.05
2023-04-25T06:45:28.190Z,99658.05
2023-04-25T06:48:00.809Z,99657.18
2023-04-25T06:50:34.059Z,99654.30
2023-04-25T06:53:06.341Z,99653.11
2023-04-25T06:55:38.927Z,99657.97
2023-04-25T06:58:21.349Z,99641.95
2023-04-25T07:00:59.852Z,99658.83
2023-04-25T07:03:32.442Z,99658.17
2023-04-25T07:06:08.615Z,99660.20
2023-04-25T07:08:40.968Z,99657.02
2023-04-25T07:11:13.206Z,99656.23
2023-04-25T07:13:46.196Z,99649.24
2023-04-25T07:16:19.038Z,99664.60
2023-04-25T07:18:52.858Z,99664.14
2023-04-25T07:21:25.326Z,99665.80
2023-04-25T07:23:57.985Z,99665.56
2023-04-25T07:26:34.461Z,99654.97
2023-04-25T07:29:41.667Z,99670.65
2023-04-25T07:32:15.263Z,99648.91
2023-04-25T07:34:48.571Z,99652.35
2023-04-25T07:37:20.964Z,99669.00
2023-04-25T07:40:06.307Z,99665.02
2023-04-25T07:42:38.696Z,99670.24
2023-04-25T07:45:12.878Z,99668.74
2023-04-25T07:47:45.706Z,99664.77
2023-04-25T07:50:18.172Z,99666.88
2023-04-25T07:52:50.443Z,99662.48
2023-04-25T07:55:33.454Z,99666.44
2023-04-25T07:58:22.350Z,99670.77
2023-04-25T08:00:57.314Z,99669.94
2023-04-25T08:03:50.455Z,99654.02
2023-04-25T08:06:28.488Z,99671.08
2023-04-25T08:09:21.507Z,99667.66
2023-04-25T08:11:53.830Z,99669.46
2023-04-25T08:14:30.135Z,99668.83
2023-04-25T08:17:02.592Z,99672.46
2023-04-25T08:19:35.500Z,99668.69
2023-04-25T08:22:08.690Z,99674.50
2023-04-25T08:24:49.223Z,99674.52
2023-04-25T08:27:23.044Z,99672.85
2023-04-25T08:29:55.627Z,99681.20
2023-04-25T08:32:29.664Z,99670.25
2023-04-25T08:35:14.867Z,99678.71
2023-04-25T08:37:50.192Z,99681.47
2023-04-25T08:40:27.211Z,99681.16
2023-04-25T08:43:12.408Z,99685.75
2023-04-25T08:45:46.182Z,99688.95
2023-04-25T08:48:39.029Z,99687.56
2023-04-25T08:51:12.611Z,99692.63
2023-04-25T08:53:47.254Z,99682.16
2023-04-25T08:56:24.306Z,99679.21
2023-04-25T08:58:57.288Z,99698.77
2023-04-25T09:01:30.149Z,99699.77
2023-04-25T09:04:03.467Z,99700.65
2023-04-25T09:06:37.016Z,99708.83
2023-04-25T09:09:12.099Z,99710.36
2023-04-25T09:11:45.572Z,99711.84
2023-04-25T09:14:21.588Z,99711.73
2023-04-25T09:17:13.464Z,99714.34
2023-04-25T09:19:52.991Z,99715.08
2023-04-25T09:22:33.114Z,99710.77
2023-04-25T09:25:11.372Z,99719.30
2023-04-25T09:27:55.523Z,99713.17
2023-04-25T09:30:36.387Z,99716.23
2023-04-25T09:33:33.857Z,99719.23
2023-04-25T09:36:08.809Z,99727.36
2023-04-25T09:39:02.613Z,99723.23
2023-04-25T09:41:43.184Z,99724.73
2023-04-25T09:44:16.315Z,99730.20
2023-04-25T09:46:54.723Z,99725.27
2023-04-25T09:49:30.759Z,99726.45
2023-04-25T09:52:19.672Z,99725.11
2023-04-25T09:55:18.629Z,99722.84
2023-04-25T09:57:55.086Z,99726.82
2023-04-25T10:00:28.559Z,99731.52
2023-04-25T10:03:03.020Z,99730.73
2023-04-25T10:05:56.070Z,99734.35
2023-04-25T10:08:32.813Z,99736.52
2023-04-25T10:11:06.834Z,99737.00
2023-04-25T10:13:39.281Z,99742.52
2023-04-25T10:16:12.910Z,99742.44
2023-04-25T10:18:45.164Z,99745.83
2023-04-25T10:21:20.100Z,99741.28
2023-04-25T10:23:53.704Z,99737.98
2023-04-25T10:26:27.689Z,99741.49
2023-04-25T10:29:02.020Z,99740.71
2023-04-25T10:31:35.933Z,99735.31
2023-04-25T10:34:08.542Z,99736.30
2023-04-25T10:36:41.071Z,99739.91
2023-04-25T10:39:13.199Z,99736.96
2023-04-25T10:41:58.459Z,99747.61
2023-04-25T10:44:30.458Z,99750.03
2023-04-25T10:47:06.814Z,99744.77
2023-04-25T10:49:43.425Z,99737.20
2023-04-25T10:52:20.276Z,99741.73
2023-04-25T10:54:53.857Z,99742.45
2023-04-25T10:57:34.619Z,99734.42
2023-04-25T11:00:13.363Z,99736.80
2023-04-25T11:02:50.509Z,99732.36
2023-04-25T11:05:33.172Z,99731.05
2023-04-25T11:08:15.101Z,99726.85
2023-04-25T11:10:50.930Z,99730.04
2023-04-25T11:13:31.171Z,99727.86
2023-04-25T11:16:12.313Z,99730.48
2023-04-25T11:18:46.549Z,99734.08
2023-04-25T11:21:19.810Z,99735.38
2023-04-25T11:23:52.387Z,99741.91
2023-04-25T11:26:26.446Z,99740.21
2023-04-25T11:29:03.387Z,99734.70
2023-04-25T11:31:35.982Z,99739.30
2023-04-25T11:34:08.548Z,99745.58
2023-04-25T11:36:41.652Z,99745.17
2023-04-25T11:39:14.489Z,99749.47
2023-04-25T11:41:46.913Z,99751.90
2023-04-25T11:44:21.105Z,99754.51
2023-04-25T11:46:53.181Z,99753.42
2023-04-25T11:49:26.056Z,99762.63
2023-04-25T11:51:58.241Z,99762.85
2023-04-25T11:54:30.704Z,99777.86
2023-04-25T11:57:02.999Z,99777.48
2023-04-25T11:59:36.035Z,99780.70
2023-04-25T12:02:08.620Z,99779.23
2023-04-25T12:04:43.482Z,99781.27
2023-04-25T12:07:16.545Z,99776.98
2023-04-25T12:09:55.375Z,99779.45
2023-04-25T12:12:34.174Z,99774.08
2023-04-25T12:15:20.395Z,99772.46
2023-04-25T12:17:55.259Z,99759.06
2023-04-25T12:20:26.919Z,99770.73
2023-04-25T12:23:01.314Z,99773.91
2023-04-25T12:25:42.218Z,99772.56
2023-04-25T12:28:14.157Z,99774.98
2023-04-25T12:31:00.047Z,99775.36
2023-04-25T12:33:31.305Z,99775.98
2023-04-25T12:36:06.383Z,99780.20
2023-04-25T12:38:38.333Z,99789.94
2023-04-25T12:41:09.300Z,99799.94
2023-04-25T12:43:40.062Z,99796.98
2023-04-25T12:46:11.038Z,99796.33
2023-04-25T12:48:41.887Z,99799.34
2023-04-25T12:51:12.915Z,99793.48
2023-04-25T12:53:43.908Z,99794.58
2023-04-25T12:56:14.901Z,99791.45
2023-04-25T12:58:46.028Z,99791.11
2023-04-25T13:01:17.027Z,99786.31
2023-04-25T13:03:48.149Z,99773.93
2023-04-25T13:06:19.757Z,99779.73
2023-04-25T13:08:51.040Z,99781.17
2023-04-25T13:11:22.210Z,99776.45
2023-04-25T13:13:53.469Z,99778.77
2023-04-25T13:16:24.470Z,99780.05
2023-04-25T13:18:57.173Z,99783.39
2023-04-25T13:21:28.209Z,99784.80
2023-04-25T13:23:59.017Z,99793.46
2023-04-25T13:26:29.821Z,99788.12
2023-04-25T13:29:01.616Z,99793.53
2023-04-25T13:31:33.519Z,99799.71
2023-04-25T13:34:04.737Z,99804.75
2023-04-25T13:36:35.475Z,99801.77
2023-04-25T13:39:06.799Z,99805.70
2023-04-25T13:41:37.925Z,99806.55
2023-04-25T13:44:08.721Z,99808.14
2023-04-25T13:46:47.025Z,99808.88
2023-04-25T13:49:18.925Z,99807.69
2023-04-25T13:51:50.112Z,99809.91
2023-04-25T13:54:20.931Z,99811.98
2023-04-25T13:56:53.031Z,99810.16
2023-04-25T13:59:23.781Z,99807.11
2023-04-25T14:01:55.035Z,99808.14
2023-04-25T14:04:26.326Z,99808.30
2023-04-25T14:06:57.513Z,99809.11
2023-04-25T14:09:28.403Z,99809.83
2023-04-25T14:11:59.252Z,99806.86
2023-04-25T14:14:30.289Z,99802.05
2023-04-25T14:17:01.278Z,99802.26
2023-04-25T14:19:32.041Z,99798.50
2023-04-25T14:22:02.817Z,99791.83
2023-04-25T14:24:33.452Z,99809.56
2023-04-25T14:27:04.102Z,99816.14
2023-04-25T14:29:35.221Z,99824.34
2023-04-25T14:32:06.767Z,99824.14
2023-04-25T14:34:37.489Z,99828.30
2023-04-25T14:37:08.063Z,99833.58
2023-04-25T14:39:38.927Z,99832.47
2023-04-25T14:42:09.719Z,99834.38
2023-04-25T14:44:40.645Z,99836.11
2023-04-25T14:47:11.563Z,99842.75
2023-04-25T14:49:42.416Z,99846.59
2023-04-25T14:52:13.027Z,99847.46
2023-04-25T14:54:43.618Z,99846.75
2023-04-25T14:57:14.373Z,99845.31
2023-04-25T14:59:45.270Z,99846.83
2023-04-25T15:02:16.284Z,99847.48
2023-04-25T15:04:47.032Z,99842.05
2023-04-25T15:07:18.762Z,99857.36
2023-04-25T15:09:49.462Z,99852.65
2023-04-25T15:12:20.298Z,99856.55
2023-04-25T15:14:50.976Z,99858.32
2023-04-25T15:17:21.633Z,99860.70
2023-04-25T15:21:01.023Z,99853.69
2023-04-25T15:23:33.716Z,99862.06
2023-04-25T15:26:06.124Z,99862.61
2023-04-25T15:28:38.599Z,99865.17
2023-04-25T15:31:11.653Z,99866.61
2023-04-25T15:33:44.781Z,99878.40
2023-04-25T15:36:17.423Z,99874.16
2023-04-25T15:38:49.665Z,99870.56
2023-04-25T15:41:22.482Z,99877.34
2023-04-25T15:43:56.387Z,99870.80
2023-04-25T15:46:29.134Z,99878.14
2023-04-25T15:49:01.645Z,99874.39
2023-04-25T15:51:34.784Z,99871.98
2023-04-25T15:54:08.310Z,99876.79
2023-04-25T15:56:40.959Z,99874.31
2023-04-25T15:59:13.293Z,99878.23
2023-04-25T16:01:46.052Z,99877.58
2023-04-25T16:04:18.822Z,99884.13
2023-04-25T16:06:51.638Z,99886.42
2023-04-25T16:09:23.759Z,99884.83
2023-04-25T16:11:57.378Z,99884.98
2023-04-25T16:14:30.349Z,99890.05
2023-04-25T16:17:03.128Z,99889.80
2023-04-25T16:19:35.868Z,99888.85
2023-04-25T16:22:09.629Z,99886.54
2023-04-25T16:24:42.385Z,99890.06
2023-04-25T16:27:15.228Z,99892.55
2023-04-25T16:29:49.584Z,99896.13
2023-04-25T16:32:22.447Z,99892.38
2023-04-25T16:34:56.969Z,99899.05
2023-04-25T16:37:31.405Z,99907.16
2023-04-25T16:40:03.996Z,99907.20
2023-04-25T16:42:36.911Z,99908.05
2023-04-25T16:45:11.150Z,99907.95
2023-04-25T16:47:43.724Z,99912.85
2023-04-25T16:50:17.232Z,99917.22
2023-04-25T16:52:49.998Z,99919.29
2023-04-25T16:55:22.799Z,99908.83
2023-04-25T16:57:55.257Z,99921.44
2023-04-25T17:00:27.927Z,99926.69
2023-04-25T17:03:00.885Z,99928.77
2023-04-25T17:05:34.104Z,99926.18
2023-04-25T17:08:06.799Z,99935.67
2023-04-25T17:10:39.333Z,99937.89
2023-04-25T17:13:11.688Z,99940.89
2023-04-25T17:15:44.325Z,99944.37
2023-04-25T17:18:17.304Z,99947.70
2023-04-25T17:20:50.217Z,99948.64
2023-04-25T17:23:22.784Z,99952.98
2023-04-25T17:25:55.017Z,99954.61
2023-04-25T17:28:27.908Z,99953.10
2023-04-25T17:31:01.348Z,99957.01
2023-04-25T17:33:34.436Z,99951.77
2023-04-25T17:36:08.657Z,99950.02
2023-04-25T17:38:41.325Z,99964.55
2023-04-25T17:41:15.173Z,99964.70
2023-04-25T17:43:47.287Z,99967.45
2023-04-25T17:46:20.186Z,99967.06
2023-04-25T17:48:52.935Z,99969.98
2023-04-25T17:51:26.505Z,99976.05
2023-04-25T17:53:58.970Z,99976.09
2023-04-25T17:56:31.986Z,99985.49
2023-04-25T17:59:04.817Z,99985.02
2023-04-25T18:01:38.182Z,99990.69
2023-04-25T18:04:11.058Z,99990.94
2023-04-25T18:06:44.374Z,99994.58
2023-04-25T18:09:23.316Z,99997.73
2023-04-25T18:11:56.696Z,99999.35
2023-04-25T18:14:29.781Z,99999.76
2023-04-25T18:17:03.700Z,100000.45
2023-04-25T18:19:36.023Z,99983.23
2023-04-25T18:22:08.484Z,100004.04
2023-04-25T18:24:40.979Z,100006.37
2023-04-25T18:27:13.782Z,100003.98
2023-04-25T18:29:45.817Z,100007.77
2023-04-25T18:32:19.037Z,100013.99
2023-04-25T18:34:51.477Z,100013.27
2023-04-25T18:37:24.756Z,100010.14
2023-04-25T18:39:57.006Z,100009.57
2023-04-25T18:42:29.766Z,100022.73
2023-04-25T18:45:02.336Z,100024.94
2023-04-25T18:47:34.820Z,100028.17
2023-04-25T18:50:09.175Z,100030.52
2023-04-25T18:52:42.015Z,100036.05
2023-04-25T18:55:14.724Z,100039.14
2023-04-25T18:57:47.397Z,100050.13
2023-04-25T19:00:19.948Z,100045.99
2023-04-25T19:02:52.471Z,100051.11
2023-04-25T19:05:25.381Z,100048.56
2023-04-25T19:07:58.928Z,100057.80
2023-04-25T19:10:31.862Z,100062.74
2023-04-25T19:13:04.287Z,100062.60
2023-04-25T19:15:37.064Z,100069.37
2023-04-25T19:18:10.174Z,100069.14
2023-04-25T19:20:42.845Z,100075.05
2023-04-25T19:23:15.645Z,100074.61
2023-04-25T19:25:47.893Z,100077.83
2023-04-25T19:28:20.519Z,100077.39
2023-04-25T19:30:53.358Z,100076.77
2023-04-25T19:33:25.745Z,100077.85
2023-04-25T19:35:58.810Z,100056.17
2023-04-25T19:38:31.842Z,100079.27
2023-04-25T19:41:04.075Z,100083.13
2023-04-25T19:43:36.563Z,100083.76
2023-04-25T19:46:09.683Z,100084.73
2023-04-25T19:48:42.241Z,100089.27
2023-04-25T19:51:15.071Z,100092.05
2023-04-25T19:53:47.709Z,100092.23
2023-04-25T19:56:21.076Z,100085.15
2023-04-25T19:58:53.947Z,100094.63
2023-04-25T20:01:26.915Z,100097.02
2023-04-25T20:03:59.636Z,100080.48
2023-04-25T20:06:32.818Z,100096.48
2023-04-25T20:09:06.785Z,100094.48
2023-04-25T20:11:39.096Z,100100.36
2023-04-25T20:14:11.892Z,100099.31
2023-04-25T20:16:44.498Z,100085.67
2023-04-25T20:19:17.661Z,100098.58
2023-04-25T20:21:50.298Z,100098.83
2023-04-25T20:24:22.812Z,100100.73
2023-04-25T20:26:56.428Z,100102.75
2023-04-25T20:29:29.572Z,100100.35
2023-04-25T20:32:03.595Z,100103.20
2023-04-25T20:34:36.740Z,100102.98
2023-04-25T20:37:09.170Z,100101.95
2023-04-25T20:39:41.883Z,100103.64
2023-04-25T20:42:14.159Z,100101.59
2023-04-25T20:44:46.542Z,100105.20
2023-04-25T20:47:18.815Z,100107.34
2023-04-25T20:49:51.413Z,100103.85
2023-04-25T20:52:23.966Z,100103.67
2023-04-25T20:54:56.391Z,100107.43
2023-04-25T20:57:29.299Z,100104.00
2023-04-25T21:00:01.823Z,100107.55
2023-04-25T21:02:34.656Z,100105.14
2023-04-25T21:05:08.442Z,100107.11
2023-04-25T21:07:42.195Z,100113.02
2023-04-25T21:10:15.989Z,100111.02
2023-04-25T21:12:49.732Z,100099.64
2023-04-25T21:15:24.965Z,100108.73
2023-04-25T21:17:57.816Z,100112.36
2023-04-25T21:20:30.399Z,100114.48
2023-04-25T21:23:03.054Z,100112.47
2023-04-25T21:25:35.865Z,100119.78
2023-04-25T21:28:08.310Z,100115.10
2023-04-25T21:30:41.361Z,100113.34
2023-04-25T21:33:14.948Z,100114.05
2023-04-25T21:35:47.718Z,100115.71
2023-04-25T21:38:20.620Z,100116.19
2023-04-25T21:40:53.103Z,100120.20
2023-04-25T21:43:26.154Z,100120.64
2023-04-25T21:46:21.669Z,100118.63
2023-04-25T21:48:52.226Z,100119.63
2023-04-25T21:51:25.722Z,100123.54
2023-04-25T21:54:00.604Z,100121.50
2023-04-25T21:56:33.112Z,100126.58
2023-04-25T21:59:05.345Z,100130.61
2023-04-25T22:01:38.764Z,100133.63
2023-04-25T22:04:11.734Z,100134.80
2023-04-25T22:06:43.925Z,100134.20
2023-04-25T22:09:16.496Z,100135.59
2023-04-25T22:11:53.303Z,100134.79
2023-04-25T22:14:26.715Z,100134.20
2023-04-25T22:16:59.261Z,100136.21
2023-04-25T22:19:31.982Z,100135.46
2023-04-25T22:22:04.121Z,100136.48
2023-04-25T22:24:36.687Z,100142.20
2023-04-25T22:27:10.261Z,100144.90
2023-04-25T22:29:42.665Z,100143.16
2023-04-25T22:32:15.482Z,100153.02
2023-04-25T22:34:47.919Z,100147.46
2023-04-25T22:37:20.770Z,100148.60
2023-04-25T22:39:52.958Z,100148.54
2023-04-25T22:42:26.061Z,100144.85
2023-04-25T22:45:00.491Z,100146.47
2023-04-25T22:47:32.908Z,100144.52
2023-04-25T22:50:06.901Z,100143.80
2023-04-25T22:52:39.013Z,100147.67
2023-04-25T22:55:13.231Z,100144.46
2023-04-25T22:57:45.844Z,100148.87
2023-04-25T23:00:21.702Z,100149.86
2023-04-25T23:02:55.134Z,100150.31
2023-04-25T23:05:28.305Z,100133.81
2023-04-25T23:08:00.601Z,100139.33
2023-04-25T23:10:33.223Z,100147.47
2023-04-25T23:13:06.314Z,100146.30
2023-04-25T23:15:38.747Z,100130.59
2023-04-25T23:18:11.618Z,100152.65
2023-04-25T23:20:44.125Z,100148.52
2023-04-25T23:23:17.097Z,100151.55
2023-04-25T23:25:49.604Z,100156.02
2023-04-25T23:28:22.145Z,100152.88
2023-04-25T23:30:54.632Z,100151.39
2023-04-25T23:33:27.038Z,100155.30
2023-04-25T23:35:59.457Z,100159.45
2023-04-25T23:38:31.650Z,100162.45
2023-04-25T23:41:04.115Z,100168.67
2023-04-25T23:43:37.001Z,100168.27
2023-04-25T23:46:09.726Z,100166.84
2023-04-25T23:48:42.582Z,100165.66
2023-04-25T23:51:14.970Z,100170.91
2023-04-25T23:53:47.614Z,100166.63
2023-04-25T23:56:19.825Z,100165.66
2023-04-25T23:58:52.130Z,100165.44
